createdAt,value
2023-01-25T00:01:57.713Z,3.67
2023-01-25T00:04:26.252Z,3.00
2023-01-25T00:06:54.889Z,3.20
2023-01-25T00:09:24.693Z,4.05
2023-01-25T00:11:56.398Z,3.33
2023-01-25T00:14:25.196Z,4.40
2023-01-25T00:16:55.127Z,3.80
2023-01-25T00:19:24.118Z,3.38
2023-01-25T00:21:52.638Z,3.25
2023-01-25T00:24:23.152Z,3.80
2023-01-25T00:26:51.781Z,3.60
2023-01-25T00:29:20.431Z,4.70
2023-01-25T00:32:02.469Z,3.45
2023-01-25T00:34:46.460Z,3.95
2023-01-25T00:37:26.684Z,4.15
2023-01-25T00:39:55.319Z,4.53
2023-01-25T00:42:24.004Z,3.42
2023-01-25T00:44:52.413Z,3.00
2023-01-25T00:47:23.098Z,2.90
2023-01-25T00:49:51.682Z,3.47
2023-01-25T00:52:20.967Z,3.50
2023-01-25T00:54:49.536Z,3.45
2023-01-25T00:57:18.116Z,3.63
2023-01-25T00:59:47.524Z,3.55
2023-01-25T01:02:16.587Z,4.18
2023-01-25T01:04:46.611Z,3.67
2023-01-25T01:07:15.794Z,3.45
2023-01-25T01:09:44.316Z,3.47
2023-01-25T01:12:12.752Z,3.05
2023-01-25T01:14:41.347Z,4.13
2023-01-25T01:17:09.830Z,2.85
2023-01-25T01:19:38.398Z,3.60
2023-01-25T01:22:08.348Z,3.75
2023-01-25T01:24:37.347Z,3.00
2023-01-25T01:27:06.183Z,3.45
2023-01-25T01:29:34.723Z,3.78
2023-01-25T01:32:03.639Z,3.17
2023-01-25T01:34:32.586Z,3.40
2023-01-25T01:37:01.479Z,3.53
2023-01-25T01:39:31.508Z,3.30
2023-01-25T01:42:00.036Z,3.10
2023-01-25T01:44:54.162Z,3.22
2023-01-25T01:47:28.394Z,4.35
2023-01-25T01:50:05.895Z,3.40
2023-01-25T01:52:38.765Z,2.75
2023-01-25T01:55:14.140Z,3.20
2023-01-25T01:57:49.879Z,3.10
2023-01-25T02:00:22.055Z,2.90
2023-01-25T02:02:52.398Z,3.70
2023-01-25T02:05:27.284Z,3.08
2023-01-25T02:07:56.896Z,3.45
2023-01-25T02:10:28.469Z,3.20
2023-01-25T02:12:59.610Z,3.47
2023-01-25T02:15:30.312Z,2.95
2023-01-25T02:17:59.832Z,3.55
2023-01-25T02:20:37.522Z,3.20
2023-01-25T02:23:12.796Z,3.10
2023-01-25T02:25:45.127Z,3.45
2023-01-25T02:28:17.935Z,4.43
2023-01-25T02:30:47.010Z,2.70
2023-01-25T02:33:17.851Z,3.95
2023-01-25T02:35:48.448Z,3.50
2023-01-25T02:38:21.322Z,3.65
2023-01-25T02:40:58.919Z,2.65
2023-01-25T02:43:32.698Z,2.90
2023-01-25T02:46:12.352Z,3.55
2023-01-25T02:48:40.918Z,3.70
2023-01-25T02:51:10.520Z,3.90
2023-01-25T02:53:41.392Z,3.47
2023-01-25T02:56:11.386Z,3.90
2023-01-25T02:58:39.995Z,3.95
2023-01-25T03:01:08.727Z,3.70
2023-01-25T03:03:38.169Z,4.10
2023-01-25T03:06:07.277Z,3.65
2023-01-25T03:08:36.286Z,3.65
2023-01-25T03:11:06.399Z,3.55
2023-01-25T03:13:37.996Z,3.15
2023-01-25T03:16:12.025Z,4.32
2023-01-25T03:18:43.285Z,3.47
2023-01-25T03:21:13.604Z,2.72
2023-01-25T03:23:42.530Z,6.45
2023-01-25T03:26:14.176Z,3.40
2023-01-25T03:28:59.188Z,3.70
2023-01-25T03:31:27.783Z,3.83
2023-01-25T03:33:56.586Z,4.22
2023-01-25T03:36:28.980Z,4.65
2023-01-25T03:38:57.523Z,5.50
2023-01-25T03:41:26.243Z,3.70
2023-01-25T03:43:55.072Z,3.90
2023-01-25T03:46:25.670Z,3.28
2023-01-25T03:48:56.476Z,3.10
2023-01-25T03:51:25.050Z,3.80
2023-01-25T03:53:54.294Z,3.35
2023-01-25T03:56:23.942Z,3.95
2023-01-25T03:59:15.651Z,3.35
2023-01-25T04:01:47.150Z,3.67
2023-01-25T04:04:15.681Z,3.78
2023-01-25T04:06:46.366Z,3.35
2023-01-25T04:09:16.418Z,2.83
2023-01-25T04:11:51.491Z,3.75
2023-01-25T04:14:31.854Z,4.05
2023-01-25T04:17:11.353Z,3.83
2023-01-25T04:19:43.521Z,3.55
2023-01-25T04:22:16.422Z,3.25
2023-01-25T04:24:45.512Z,4.28
2023-01-25T04:27:14.466Z,3.33
2023-01-25T04:29:54.066Z,4.28
2023-01-25T04:32:25.140Z,3.60
2023-01-25T04:34:54.469Z,4.88
2023-01-25T04:37:31.836Z,4.03
2023-01-25T04:40:01.493Z,4.15
2023-01-25T04:42:34.448Z,3.35
2023-01-25T04:45:03.131Z,4.38
2023-01-25T04:47:33.224Z,4.15
2023-01-25T04:50:01.795Z,3.38
2023-01-25T04:52:32.542Z,3.55
2023-01-25T04:55:01.127Z,4.10
2023-01-25T04:57:33.069Z,3.45
2023-01-25T05:00:01.601Z,3.90
2023-01-25T05:02:30.292Z,4.15
2023-01-25T05:05:00.805Z,3.70
2023-01-25T05:07:30.411Z,3.60
2023-01-25T05:09:59.274Z,3.67
2023-01-25T05:12:28.777Z,3.75
2023-01-25T05:15:01.997Z,2.97
2023-01-25T05:17:30.885Z,3.67
2023-01-25T05:20:00.823Z,3.65
2023-01-25T05:22:30.239Z,3.78
2023-01-25T05:24:59.278Z,3.85
2023-01-25T05:27:26.995Z,3.17
2023-01-25T05:29:55.861Z,3.40
2023-01-25T05:32:44.625Z,3.45
2023-01-25T05:35:15.066Z,3.40
2023-01-25T05:37:45.163Z,3.63
2023-01-25T05:40:20.847Z,4.10
2023-01-25T05:42:55.924Z,3.97
2023-01-25T05:45:25.921Z,4.43
2023-01-25T05:47:57.127Z,3.30
2023-01-25T05:50:28.058Z,3.28
2023-01-25T05:53:09.266Z,3.25
2023-01-25T05:55:39.415Z,3.97
2023-01-25T05:58:11.496Z,4.10
2023-01-25T06:00:41.001Z,3.60
2023-01-25T06:03:10.656Z,2.97
2023-01-25T06:05:42.222Z,3.22
2023-01-25T06:08:10.774Z,4.00
2023-01-25T06:10:49.253Z,4.30
2023-01-25T06:13:17.867Z,4.40
2023-01-25T06:15:54.350Z,3.88
2023-01-25T06:18:41.675Z,3.70
2023-01-25T06:21:38.078Z,3.70
2023-01-25T06:24:07.426Z,3.67
2023-01-25T06:26:36.105Z,3.80
2023-01-25T06:29:06.664Z,3.80
2023-01-25T06:31:35.276Z,4.07
2023-01-25T06:34:06.349Z,4.10
2023-01-25T06:36:35.472Z,3.78
2023-01-25T06:39:09.224Z,3.28
2023-01-25T06:41:37.795Z,3.10
2023-01-25T06:44:06.562Z,4.20
2023-01-25T06:46:35.176Z,3.03
2023-01-25T06:49:03.722Z,3.30
2023-01-25T06:51:32.668Z,3.72
2023-01-25T06:54:04.831Z,3.72
2023-01-25T06:56:34.713Z,4.15
2023-01-25T06:59:04.300Z,3.88
2023-01-25T07:01:33.870Z,3.70
2023-01-25T07:04:02.764Z,3.92
2023-01-25T07:06:34.113Z,3.70
2023-01-25T07:09:07.330Z,3.90
2023-01-25T07:11:37.890Z,3.75
2023-01-25T07:14:07.449Z,3.83
2023-01-25T07:16:38.565Z,3.42
2023-01-25T07:19:07.862Z,5.50
2023-01-25T07:21:36.448Z,4.20
2023-01-25T07:24:06.860Z,3.58
2023-01-25T07:26:36.882Z,3.63
2023-01-25T07:29:05.428Z,3.80
2023-01-25T07:31:34.240Z,4.40
2023-01-25T07:34:03.086Z,4.22
2023-01-25T07:36:31.489Z,4.03
2023-01-25T07:39:00.128Z,3.80
2023-01-25T07:41:28.888Z,4.28
2023-01-25T07:43:58.965Z,5.07
2023-01-25T07:46:38.527Z,5.78
2023-01-25T07:49:07.111Z,3.67
2023-01-25T07:51:35.619Z,4.07
2023-01-25T07:54:05.996Z,4.05
2023-01-25T07:56:36.570Z,4.82
2023-01-25T07:59:08.439Z,4.32
2023-01-25T08:01:37.630Z,4.60
2023-01-25T08:04:06.606Z,4.03
2023-01-25T08:06:39.285Z,3.72
2023-01-25T08:09:13.219Z,3.53
2023-01-25T08:11:43.171Z,3.95
2023-01-25T08:14:13.189Z,4.78
2023-01-25T08:16:41.811Z,4.50
2023-01-25T08:19:11.671Z,3.95
2023-01-25T08:21:40.186Z,3.47
2023-01-25T08:24:09.703Z,3.72
2023-01-25T08:26:38.780Z,3.30
2023-01-25T08:29:08.891Z,3.90
2023-01-25T08:31:40.962Z,3.35
2023-01-25T08:34:10.776Z,3.55
2023-01-25T08:36:39.314Z,3.67
2023-01-25T08:39:09.347Z,4.30
2023-01-25T08:41:37.905Z,3.88
2023-01-25T08:44:06.775Z,3.75
2023-01-25T08:46:35.817Z,3.95
2023-01-25T08:49:06.120Z,4.30
2023-01-25T08:51:34.942Z,4.15
2023-01-25T08:54:04.582Z,5.57
2023-01-25T08:56:33.696Z,4.00
2023-01-25T08:59:02.240Z,3.90
2023-01-25T09:01:33.668Z,4.32
2023-01-25T09:04:06.811Z,4.05
2023-01-25T09:06:35.335Z,4.03
2023-01-25T09:09:04.813Z,4.05
2023-01-25T09:11:37.156Z,4.10
2023-01-25T09:14:06.350Z,4.18
2023-01-25T09:16:34.883Z,4.38
2023-01-25T09:19:05.352Z,3.80
2023-01-25T09:21:37.182Z,3.97
2023-01-25T09:24:07.584Z,4.18
2023-01-25T09:26:38.361Z,3.63
2023-01-25T09:29:08.335Z,3.80
2023-01-25T09:31:40.911Z,4.38
2023-01-25T09:34:14.560Z,4.20
2023-01-25T09:36:44.976Z,3.90
2023-01-25T09:39:13.719Z,3.88
2023-01-25T09:42:14.754Z,4.07
2023-01-25T09:44:58.486Z,3.88
2023-01-25T09:47:31.192Z,4.20
2023-01-25T09:50:33.237Z,4.40
2023-01-25T09:53:20.548Z,4.45
2023-01-25T09:55:54.325Z,3.90
2023-01-25T09:58:29.365Z,3.88
2023-01-25T10:01:14.649Z,3.50
2023-01-25T10:03:49.320Z,3.65
2023-01-25T10:06:19.222Z,3.92
2023-01-25T10:08:56.132Z,3.10
2023-01-25T10:11:27.960Z,4.30
2023-01-25T10:13:57.440Z,3.33
2023-01-25T10:16:31.271Z,3.97
2023-01-25T10:19:09.357Z,3.17
2023-01-25T10:21:42.213Z,3.20
2023-01-25T10:24:43.510Z,4.20
2023-01-25T10:27:27.257Z,3.78
2023-01-25T10:29:59.933Z,4.20
2023-01-25T10:32:32.452Z,4.68
2023-01-25T10:35:29.257Z,3.80
2023-01-25T10:38:08.118Z,4.43
2023-01-25T10:40:43.523Z,5.53
2023-01-25T10:43:19.215Z,3.38
2023-01-25T10:45:48.363Z,3.08
2023-01-25T10:48:21.948Z,3.75
2023-01-25T10:50:53.049Z,3.70
2023-01-25T10:53:28.012Z,18.50
2023-01-25T10:56:02.385Z,13.07
2023-01-25T10:58:35.769Z,13.32
2023-01-25T11:01:07.514Z,11.43
2023-01-25T11:03:38.469Z,11.15
2023-01-25T11:06:08.055Z,10.30
2023-01-25T11:08:38.434Z,11.00
2023-01-25T11:11:25.725Z,10.23
2023-01-25T11:13:56.428Z,9.70
2023-01-25T11:16:34.779Z,9.45
2023-01-25T11:19:04.239Z,9.07
2023-01-25T11:21:35.019Z,9.65
2023-01-25T11:24:16.437Z,9.35
2023-01-25T11:26:45.248Z,10.27
2023-01-25T11:29:18.014Z,8.88
2023-01-25T11:31:48.878Z,8.88
2023-01-25T11:34:20.775Z,9.50
2023-01-25T11:37:37.263Z,8.75
2023-01-25T11:40:17.400Z,8.70
2023-01-25T11:43:00.941Z,9.30
2023-01-25T11:46:01.772Z,8.68
2023-01-25T11:48:46.343Z,8.75
2023-01-25T11:51:20.726Z,10.73
2023-01-25T11:54:02.081Z,17.85
2023-01-25T11:56:39.303Z,13.57
2023-01-25T11:59:23.908Z,12.88
2023-01-25T12:02:08.608Z,12.18
2023-01-25T12:05:12.660Z,11.55
2023-01-25T12:07:56.784Z,10.57
2023-01-25T12:10:36.031Z,12.10
2023-01-25T12:13:12.943Z,10.57
2023-01-25T12:16:01.061Z,11.25
2023-01-25T12:18:56.828Z,10.57
2023-01-25T12:21:36.755Z,10.95
2023-01-25T12:24:32.391Z,10.75
2023-01-25T12:27:14.307Z,10.43
2023-01-25T12:29:46.482Z,10.18
2023-01-25T12:32:21.221Z,9.80
2023-01-25T12:34:59.387Z,10.10
2023-01-25T12:37:36.124Z,9.38
2023-01-25T12:40:07.928Z,9.90
2023-01-25T12:42:42.583Z,11.27
2023-01-25T12:45:15.719Z,9.45
2023-01-25T12:47:50.562Z,9.45
2023-01-25T12:50:23.994Z,10.45
2023-01-25T12:52:55.610Z,9.13
2023-01-25T12:55:24.176Z,9.73
2023-01-25T12:57:59.768Z,9.13
2023-01-25T13:00:34.657Z,9.07
2023-01-25T13:03:17.723Z,10.52
2023-01-25T13:05:52.527Z,9.85
2023-01-25T13:08:34.141Z,9.30
2023-01-25T13:11:13.440Z,9.65
2023-01-25T13:13:42.358Z,10.18
2023-01-25T13:16:36.252Z,9.20
2023-01-25T13:19:04.887Z,10.60
2023-01-25T13:21:45.117Z,10.18
2023-01-25T13:24:17.051Z,9.13
2023-01-25T13:26:58.668Z,9.55
2023-01-25T13:29:56.471Z,10.50
2023-01-25T13:33:10.139Z,8.93
2023-01-25T13:35:44.492Z,8.80
2023-01-25T13:38:30.911Z,9.75
2023-01-25T13:41:13.155Z,9.90
2023-01-25T13:43:43.396Z,9.00
2023-01-25T13:46:15.952Z,9.48
2023-01-25T13:49:08.212Z,8.68
2023-01-25T13:51:44.395Z,8.80
2023-01-25T13:54:23.322Z,9.38
2023-01-25T13:57:06.003Z,8.85
2023-01-25T13:59:34.869Z,9.15
2023-01-25T14:02:03.928Z,8.35
2023-01-25T14:04:32.852Z,7.57
2023-01-25T14:07:10.031Z,7.90
2023-01-25T14:09:44.411Z,8.80
2023-01-25T14:12:13.507Z,7.80
2023-01-25T14:14:43.054Z,9.07
2023-01-25T14:17:20.293Z,8.05
2023-01-25T14:19:50.514Z,7.32
2023-01-25T14:22:25.791Z,8.20
2023-01-25T14:25:11.245Z,7.97
2023-01-25T14:27:44.612Z,8.27
2023-01-25T14:30:20.239Z,8.20
2023-01-25T14:32:50.029Z,7.65
2023-01-25T14:35:42.728Z,7.40
2023-01-25T14:38:28.459Z,7.75
2023-01-25T14:41:02.210Z,7.78
2023-01-25T14:43:31.922Z,7.13
2023-01-25T14:46:00.420Z,8.68
2023-01-25T14:48:40.843Z,8.15
2023-01-25T14:51:16.868Z,8.15
2023-01-25T14:53:48.912Z,6.72
2023-01-25T14:56:34.339Z,8.15
2023-01-25T14:59:03.233Z,9.55
2023-01-25T15:01:34.813Z,7.15
2023-01-25T15:04:04.791Z,8.63
2023-01-25T15:06:33.317Z,6.35
2023-01-25T15:09:01.822Z,7.22
2023-01-25T15:11:45.483Z,7.45
2023-01-25T15:14:19.101Z,7.60
2023-01-25T15:16:47.873Z,7.32
2023-01-25T15:19:24.166Z,7.15
2023-01-25T15:21:52.733Z,7.65
2023-01-25T15:24:21.838Z,7.25
2023-01-25T15:26:53.730Z,7.47
2023-01-25T15:29:23.666Z,6.95
2023-01-25T15:31:54.189Z,7.35
2023-01-25T15:34:27.348Z,6.75
2023-01-25T15:36:55.725Z,6.25
2023-01-25T15:39:24.143Z,6.65
2023-01-25T15:41:54.042Z,6.82
2023-01-25T15:44:22.520Z,6.95
2023-01-25T15:46:53.650Z,7.20
2023-01-25T15:49:26.773Z,6.40
2023-01-25T15:51:55.753Z,6.50
2023-01-25T15:54:24.816Z,7.35
2023-01-25T15:56:57.165Z,6.25
2023-01-25T15:59:27.164Z,6.88
2023-01-25T16:01:55.736Z,5.90
2023-01-25T16:04:25.329Z,6.95
2023-01-25T16:06:55.578Z,6.35
2023-01-25T16:09:43.319Z,6.30
2023-01-25T16:12:58.949Z,6.45
2023-01-25T16:15:56.038Z,6.63
2023-01-25T16:18:55.780Z,6.63
2023-01-25T16:21:52.970Z,8.02
2023-01-25T16:24:53.779Z,6.40
2023-01-25T16:27:59.575Z,6.50
2023-01-25T16:30:50.619Z,5.95
2023-01-25T16:33:50.897Z,6.50
2023-01-25T16:36:33.469Z,6.97
2023-01-25T16:39:25.655Z,6.97
2023-01-25T16:42:22.867Z,6.68
2023-01-25T16:45:09.480Z,5.93
2023-01-25T16:48:09.023Z,5.70
2023-01-25T16:50:51.649Z,5.07
2023-01-25T16:53:51.499Z,5.85
2023-01-25T16:56:41.881Z,6.22
2023-01-25T16:59:34.446Z,6.95
2023-01-25T17:02:27.759Z,6.30
2023-01-25T17:05:22.391Z,6.72
2023-01-25T17:08:06.270Z,6.28
2023-01-25T17:10:55.759Z,5.93
2023-01-25T17:13:36.382Z,5.43
2023-01-25T17:16:23.402Z,6.25
2023-01-25T17:19:16.658Z,6.30
2023-01-25T17:25:23.116Z,5.28
2023-01-25T17:28:14.708Z,6.82
2023-01-25T17:30:57.369Z,6.75
2023-01-25T17:34:16.502Z,5.97
2023-01-25T17:37:08.288Z,6.22
2023-01-25T17:39:48.997Z,5.65
2023-01-25T17:42:50.692Z,6.05
2023-01-25T17:46:07.506Z,5.88
2023-01-25T17:48:54.090Z,5.28
2023-01-25T17:51:41.667Z,6.30
2023-01-25T17:54:31.991Z,5.93
2023-01-25T17:57:31.620Z,5.72
2023-01-25T18:00:23.877Z,5.82
2023-01-25T18:03:26.646Z,5.00
2023-01-25T18:06:11.019Z,5.55
2023-01-25T18:09:00.169Z,5.82
2023-01-25T18:11:57.175Z,5.25
2023-01-25T18:14:55.862Z,5.45
2023-01-25T18:18:26.106Z,6.30
2023-01-25T18:21:34.214Z,6.07
2023-01-25T18:24:32.753Z,5.75
2023-01-25T18:27:24.271Z,7.00
2023-01-25T18:33:42.532Z,5.95
2023-01-25T18:36:45.735Z,5.72
2023-01-25T18:39:20.006Z,5.95
2023-01-25T18:42:11.991Z,5.32
2023-01-25T18:45:07.884Z,5.40
2023-01-25T18:48:23.666Z,6.30
2023-01-25T18:52:01.918Z,5.97
2023-01-25T18:54:34.059Z,6.20
2023-01-25T18:57:21.634Z,5.97
2023-01-25T19:00:15.530Z,6.70
2023-01-25T19:03:14.263Z,6.75
2023-01-25T19:06:03.914Z,6.45
2023-01-25T19:09:00.512Z,6.43
2023-01-25T19:11:44.903Z,6.13
2023-01-25T19:14:48.986Z,6.13
2023-01-25T19:17:43.687Z,5.50
2023-01-25T19:20:33.262Z,6.32
2023-01-25T19:23:24.373Z,5.20
2023-01-25T19:26:07.603Z,6.85
2023-01-25T19:29:02.101Z,6.10
2023-01-25T19:31:59.573Z,5.20
2023-01-25T19:34:57.284Z,5.90
2023-01-25T19:37:55.963Z,6.93
2023-01-25T19:40:42.465Z,6.60
2023-01-25T19:43:36.912Z,6.00
2023-01-25T19:46:34.814Z,6.38
2023-01-25T19:49:37.708Z,6.15
2023-01-25T19:52:45.105Z,6.03
2023-01-25T19:55:53.012Z,6.57
2023-01-25T19:58:51.613Z,5.07
2023-01-25T20:01:33.027Z,5.78
2023-01-25T20:04:34.610Z,5.25
2023-01-25T20:07:27.606Z,5.85
2023-01-25T20:10:24.208Z,5.63
2023-01-25T20:13:13.991Z,5.85
2023-01-25T20:16:10.051Z,5.88
2023-01-25T20:18:49.484Z,5.75
2023-01-25T20:21:43.265Z,6.22
2023-01-25T20:24:25.492Z,5.72
2023-01-25T20:27:33.761Z,5.13
2023-01-25T20:30:24.905Z,5.00
2023-01-25T20:33:10.658Z,5.95
2023-01-25T20:36:06.788Z,6.10
2023-01-25T20:38:53.732Z,5.43
2023-01-25T20:41:57.307Z,5.20
2023-01-25T20:47:57.691Z,5.75
2023-01-25T20:50:38.563Z,6.10
2023-01-25T20:53:29.239Z,5.93
2023-01-25T20:56:25.186Z,5.40
2023-01-25T20:59:27.132Z,6.10
2023-01-25T21:02:14.082Z,4.90
2023-01-25T21:07:52.005Z,5.88
2023-01-25T21:10:41.114Z,6.65
2023-01-25T21:13:28.465Z,5.40
2023-01-25T21:16:15.549Z,5.45
2023-01-25T21:19:10.304Z,4.90
2023-01-25T21:21:53.644Z,5.55
2023-01-25T21:25:16.125Z,5.03
2023-01-25T21:28:03.184Z,5.72
2023-01-25T21:30:54.371Z,4.75
2023-01-25T21:33:50.325Z,4.47
2023-01-25T21:39:55.280Z,5.88
2023-01-25T21:42:33.198Z,5.53
2023-01-25T21:45:39.492Z,5.40
2023-01-25T21:48:37.964Z,4.85
2023-01-25T21:51:40.740Z,4.90
2023-01-25T21:54:37.153Z,6.30
2023-01-25T21:57:16.283Z,4.50
2023-01-25T21:59:57.169Z,4.38
2023-01-25T22:03:02.784Z,5.20
2023-01-25T22:06:33.949Z,4.90
2023-01-25T22:09:24.360Z,5.95
2023-01-25T22:12:08.995Z,6.50
2023-01-25T22:14:59.749Z,5.35
2023-01-25T22:17:52.421Z,5.05
2023-01-25T22:20:49.771Z,5.20
2023-01-25T22:24:00.819Z,4.90
2023-01-25T22:27:03.494Z,4.68
2023-01-25T22:29:44.924Z,4.85
2023-01-25T22:32:22.074Z,4.72
2023-01-25T22:35:11.642Z,4.85
2023-01-25T22:38:07.384Z,5.20
2023-01-25T22:40:59.727Z,4.65
2023-01-25T22:44:07.633Z,5.20
2023-01-25T22:46:46.466Z,5.78
2023-01-25T22:49:39.822Z,4.72
2023-01-25T22:52:20.311Z,4.85
2023-01-25T22:55:06.709Z,5.47
2023-01-25T22:57:56.240Z,4.47
2023-01-25T23:01:09.828Z,4.55
2023-01-25T23:04:08.214Z,4.97
2023-01-25T23:06:56.053Z,4.70
2023-01-25T23:09:55.537Z,5.43
2023-01-25T23:12:35.201Z,5.50
2023-01-25T23:15:30.524Z,4.75
2023-01-25T23:18:39.018Z,5.60
2023-01-25T23:21:37.927Z,5.50
2023-01-25T23:24:16.150Z,5.00
2023-01-25T23:26:55.051Z,5.80
2023-01-25T23:29:54.515Z,4.78
2023-01-25T23:32:52.855Z,5.13
2023-01-25T23:35:50.645Z,5.55
2023-01-25T23:38:31.538Z,4.85
2023-01-25T23:41:19.796Z,5.10
2023-01-25T23:44:04.081Z,5.40
2023-01-25T23:46:54.794Z,5.88
2023-01-25T23:49:47.340Z,5.40
2023-01-25T23:52:19.795Z,5.32
2023-01-25T23:55:21.879Z,5.45
2023-01-25T23:58:18.910Z,4.68
